sensor_id;sensor_type;location;lat;lon;timestamp;P1;durP1;ratioP1;P2;durP2;ratioP2
5841;SDS011;2947;52.276;9.946;2023-04-07T00:01:44;17.77;;;9.90;;
5841;SDS011;2947;52.276;9.946;2023-04-07T00:04:11;22.30;;;10.20;;
5841;SDS011;2947;52.276;9.946;2023-04-07T00:06:37;15.13;;;9.23;;
5841;SDS011;2947;52.276;9.946;2023-04-07T00:09:04;15.10;;;9.40;;
5841;SDS011;2947;52.276;9.946;2023-04-07T00:11:30;18.07;;;9.40;;
5841;SDS011;2947;52.276;9.946;2023-04-07T00:13:56;13.00;;;8.70;;
5841;SDS011;2947;52.276;9.946;2023-04-07T00:16:22;19.03;;;10.87;;
5841;SDS011;2947;52.276;9.946;2023-04-07T00:18:48;17.87;;;11.00;;
5841;SDS011;2947;52.276;9.946;2023-04-07T00:21:13;19.10;;;9.90;;
5841;SDS011;2947;52.276;9.946;2023-04-07T00:23:39;15.70;;;9.43;;
5841;SDS011;2947;52.276;9.946;2023-04-07T00:26:05;16.20;;;10.07;;
5841;SDS011;2947;52.276;9.946;2023-04-07T00:28:30;16.23;;;10.00;;
5841;SDS011;2947;52.276;9.946;2023-04-07T00:30:56;17.33;;;10.47;;
5841;SDS011;2947;52.276;9.946;2023-04-07T00:33:22;13.20;;;9.60;;
5841;SDS011;2947;52.276;9.946;2023-04-07T00:35:49;14.50;;;9.90;;
5841;SDS011;2947;52.276;9.946;2023-04-07T00:38:18;18.30;;;9.03;;
5841;SDS011;2947;52.276;9.946;2023-04-07T00:40:45;16.20;;;9.67;;
5841;SDS011;2947;52.276;9.946;2023-04-07T00:43:12;16.27;;;9.67;;
5841;SDS011;2947;52.276;9.946;2023-04-07T00:45:38;16.43;;;9.80;;
5841;SDS011;2947;52.276;9.946;2023-04-07T00:48:03;16.23;;;10.27;;
5841;SDS011;2947;52.276;9.946;2023-04-07T00:50:29;13.80;;;8.70;;
5841;SDS011;2947;52.276;9.946;2023-04-07T00:52:55;17.53;;;10.17;;
5841;SDS011;2947;52.276;9.946;2023-04-07T00:55:21;20.20;;;10.20;;
5841;SDS011;2947;52.276;9.946;2023-04-07T00:57:47;16.20;;;9.53;;
5841;SDS011;2947;52.276;9.946;2023-04-07T01:00:16;19.23;;;10.10;;
5841;SDS011;2947;52.276;9.946;2023-04-07T01:02:44;15.83;;;9.93;;
5841;SDS011;2947;52.276;9.946;2023-04-07T01:05:38;16.60;;;9.17;;
5841;SDS011;2947;52.276;9.946;2023-04-07T01:08:23;14.70;;;9.23;;
5841;SDS011;2947;52.276;9.946;2023-04-07T01:13:51;15.07;;;9.30;;
5841;SDS011;2947;52.276;9.946;2023-04-07T01:16:38;14.83;;;9.20;;
5841;SDS011;2947;52.276;9.946;2023-04-07T01:19:55;14.03;;;8.97;;
5841;SDS011;2947;52.276;9.946;2023-04-07T01:22:10;17.53;;;9.50;;
5841;SDS011;2947;52.276;9.946;2023-04-07T01:27:41;17.83;;;9.70;;
5841;SDS011;2947;52.276;9.946;2023-04-07T01:30:29;16.50;;;10.37;;
5841;SDS011;2947;52.276;9.946;2023-04-07T01:32:58;17.27;;;9.40;;
5841;SDS011;2947;52.276;9.946;2023-04-07T01:35:25;14.77;;;9.80;;
5841;SDS011;2947;52.276;9.946;2023-04-07T01:37:55;15.43;;;9.50;;
5841;SDS011;2947;52.276;9.946;2023-04-07T01:40:21;18.90;;;10.17;;
5841;SDS011;2947;52.276;9.946;2023-04-07T01:42:49;18.40;;;9.63;;
5841;SDS011;2947;52.276;9.946;2023-04-07T01:45:16;21.07;;;9.97;;
5841;SDS011;2947;52.276;9.946;2023-04-07T01:47:43;17.63;;;10.73;;
5841;SDS011;2947;52.276;9.946;2023-04-07T01:50:10;17.63;;;9.47;;
5841;SDS011;2947;52.276;9.946;2023-04-07T01:52:36;17.70;;;10.07;;
5841;SDS011;2947;52.276;9.946;2023-04-07T01:55:04;17.53;;;9.93;;
5841;SDS011;2947;52.276;9.946;2023-04-07T01:57:31;16.70;;;10.23;;
5841;SDS011;2947;52.276;9.946;2023-04-07T01:59:57;22.93;;;11.53;;
5841;SDS011;2947;52.276;9.946;2023-04-07T02:02:23;17.40;;;10.23;;
5841;SDS011;2947;52.276;9.946;2023-04-07T02:07:27;14.03;;;9.80;;
5841;SDS011;2947;52.276;9.946;2023-04-07T02:10:01;20.20;;;10.30;;
5841;SDS011;2947;52.276;9.946;2023-04-07T02:12:29;19.07;;;11.30;;
5841;SDS011;2947;52.276;9.946;2023-04-07T02:14:57;20.30;;;11.20;;
5841;SDS011;2947;52.276;9.946;2023-04-07T02:17:25;17.87;;;12.13;;
5841;SDS011;2947;52.276;9.946;2023-04-07T02:19:53;20.20;;;11.77;;
5841;SDS011;2947;52.276;9.946;2023-04-07T02:22:21;21.77;;;11.13;;
5841;SDS011;2947;52.276;9.946;2023-04-07T02:24:50;17.70;;;10.30;;
5841;SDS011;2947;52.276;9.946;2023-04-07T02:27:17;18.83;;;10.93;;
5841;SDS011;2947;52.276;9.946;2023-04-07T02:29:45;19.77;;;10.77;;
5841;SDS011;2947;52.276;9.946;2023-04-07T02:32:11;17.17;;;10.80;;
5841;SDS011;2947;52.276;9.946;2023-04-07T02:34:37;23.03;;;10.87;;
5841;SDS011;2947;52.276;9.946;2023-04-07T02:37:03;17.60;;;10.63;;
5841;SDS011;2947;52.276;9.946;2023-04-07T02:39:28;17.33;;;10.37;;
5841;SDS011;2947;52.276;9.946;2023-04-07T02:41:54;18.67;;;10.90;;
5841;SDS011;2947;52.276;9.946;2023-04-07T02:44:20;17.63;;;11.03;;
5841;SDS011;2947;52.276;9.946;2023-04-07T02:46:47;20.27;;;12.00;;
5841;SDS011;2947;52.276;9.946;2023-04-07T02:49:13;23.87;;;11.10;;
5841;SDS011;2947;52.276;9.946;2023-04-07T02:51:39;20.13;;;12.13;;
5841;SDS011;2947;52.276;9.946;2023-04-07T02:54:04;19.70;;;11.13;;
5841;SDS011;2947;52.276;9.946;2023-04-07T02:56:30;18.10;;;10.60;;
5841;SDS011;2947;52.276;9.946;2023-04-07T02:58:56;22.20;;;11.70;;
5841;SDS011;2947;52.276;9.946;2023-04-07T03:01:22;19.37;;;11.03;;
5841;SDS011;2947;52.276;9.946;2023-04-07T03:03:49;19.80;;;12.30;;
5841;SDS011;2947;52.276;9.946;2023-04-07T03:06:15;17.93;;;10.80;;
5841;SDS011;2947;52.276;9.946;2023-04-07T03:08:40;17.53;;;10.90;;
5841;SDS011;2947;52.276;9.946;2023-04-07T03:11:06;16.83;;;10.50;;
5841;SDS011;2947;52.276;9.946;2023-04-07T03:13:32;22.03;;;11.13;;
5841;SDS011;2947;52.276;9.946;2023-04-07T03:15:58;19.03;;;12.17;;
5841;SDS011;2947;52.276;9.946;2023-04-07T03:18:23;18.00;;;11.00;;
5841;SDS011;2947;52.276;9.946;2023-04-07T03:20:49;20.13;;;11.40;;
5841;SDS011;2947;52.276;9.946;2023-04-07T03:23:17;17.10;;;10.60;;
5841;SDS011;2947;52.276;9.946;2023-04-07T03:25:43;21.67;;;11.17;;
5841;SDS011;2947;52.276;9.946;2023-04-07T03:28:09;17.83;;;10.90;;
5841;SDS011;2947;52.276;9.946;2023-04-07T03:30:35;17.50;;;10.40;;
5841;SDS011;2947;52.276;9.946;2023-04-07T03:33:01;19.80;;;11.60;;
5841;SDS011;2947;52.276;9.946;2023-04-07T03:35:27;18.40;;;11.07;;
5841;SDS011;2947;52.276;9.946;2023-04-07T03:37:52;23.37;;;11.57;;
5841;SDS011;2947;52.276;9.946;2023-04-07T03:40:18;17.07;;;11.40;;
5841;SDS011;2947;52.276;9.946;2023-04-07T03:42:44;16.93;;;10.70;;
5841;SDS011;2947;52.276;9.946;2023-04-07T03:45:10;16.60;;;10.97;;
5841;SDS011;2947;52.276;9.946;2023-04-07T03:47:36;19.07;;;10.50;;
5841;SDS011;2947;52.276;9.946;2023-04-07T03:50:02;15.57;;;9.83;;
5841;SDS011;2947;52.276;9.946;2023-04-07T03:52:28;22.43;;;12.07;;
5841;SDS011;2947;52.276;9.946;2023-04-07T03:54:53;20.57;;;11.70;;
5841;SDS011;2947;52.276;9.946;2023-04-07T03:57:19;17.10;;;10.50;;
5841;SDS011;2947;52.276;9.946;2023-04-07T03:59:45;22.43;;;11.33;;
5841;SDS011;2947;52.276;9.946;2023-04-07T04:02:14;19.17;;;11.67;;
5841;SDS011;2947;52.276;9.946;2023-04-07T04:04:41;23.03;;;11.27;;
5841;SDS011;2947;52.276;9.946;2023-04-07T04:07:07;19.13;;;11.43;;
5841;SDS011;2947;52.276;9.946;2023-04-07T04:09:32;22.50;;;11.23;;
5841;SDS011;2947;52.276;9.946;2023-04-07T04:11:58;18.83;;;12.30;;
5841;SDS011;2947;52.276;9.946;2023-04-07T04:14:25;23.80;;;12.40;;
5841;SDS011;2947;52.276;9.946;2023-04-07T04:16:50;19.27;;;12.23;;
5841;SDS011;2947;52.276;9.946;2023-04-07T04:19:18;19.57;;;12.23;;
5841;SDS011;2947;52.276;9.946;2023-04-07T04:21:44;21.67;;;12.80;;
5841;SDS011;2947;52.276;9.946;2023-04-07T04:24:10;20.63;;;12.43;;
5841;SDS011;2947;52.276;9.946;2023-04-07T04:26:36;24.20;;;12.73;;
5841;SDS011;2947;52.276;9.946;2023-04-07T04:29:01;22.83;;;12.10;;
5841;SDS011;2947;52.276;9.946;2023-04-07T04:31:27;21.90;;;11.90;;
5841;SDS011;2947;52.276;9.946;2023-04-07T04:33:53;18.50;;;11.47;;
5841;SDS011;2947;52.276;9.946;2023-04-07T04:36:19;18.60;;;12.10;;
5841;SDS011;2947;52.276;9.946;2023-04-07T04:38:46;21.90;;;12.97;;
5841;SDS011;2947;52.276;9.946;2023-04-07T04:41:12;29.90;;;14.53;;
5841;SDS011;2947;52.276;9.946;2023-04-07T04:43:37;24.03;;;14.00;;
5841;SDS011;2947;52.276;9.946;2023-04-07T04:46:03;23.07;;;13.23;;
5841;SDS011;2947;52.276;9.946;2023-04-07T04:48:29;20.17;;;12.33;;
5841;SDS011;2947;52.276;9.946;2023-04-07T04:50:55;21.47;;;12.43;;
5841;SDS011;2947;52.276;9.946;2023-04-07T04:53:20;26.13;;;13.53;;
5841;SDS011;2947;52.276;9.946;2023-04-07T04:55:46;26.20;;;13.80;;
5841;SDS011;2947;52.276;9.946;2023-04-07T04:58:16;20.17;;;12.70;;
5841;SDS011;2947;52.276;9.946;2023-04-07T05:00:43;19.50;;;13.60;;
5841;SDS011;2947;52.276;9.946;2023-04-07T05:03:08;20.40;;;12.40;;
5841;SDS011;2947;52.276;9.946;2023-04-07T05:05:34;21.37;;;12.63;;
5841;SDS011;2947;52.276;9.946;2023-04-07T05:08:01;17.47;;;11.67;;
5841;SDS011;2947;52.276;9.946;2023-04-07T05:10:27;23.43;;;13.30;;
5841;SDS011;2947;52.276;9.946;2023-04-07T05:12:53;20.63;;;12.43;;
5841;SDS011;2947;52.276;9.946;2023-04-07T05:15:18;19.43;;;12.70;;
5841;SDS011;2947;52.276;9.946;2023-04-07T05:17:44;19.10;;;12.13;;
5841;SDS011;2947;52.276;9.946;2023-04-07T05:20:14;25.13;;;12.90;;
5841;SDS011;2947;52.276;9.946;2023-04-07T05:22:40;21.63;;;12.60;;
5841;SDS011;2947;52.276;9.946;2023-04-07T05:25:06;19.90;;;13.10;;
5841;SDS011;2947;52.276;9.946;2023-04-07T05:27:34;21.00;;;12.23;;
5841;SDS011;2947;52.276;9.946;2023-04-07T05:30:01;20.90;;;12.50;;
5841;SDS011;2947;52.276;9.946;2023-04-07T05:32:27;21.87;;;13.20;;
5841;SDS011;2947;52.276;9.946;2023-04-07T05:34:53;24.50;;;12.90;;
5841;SDS011;2947;52.276;9.946;2023-04-07T05:37:22;23.13;;;12.80;;
5841;SDS011;2947;52.276;9.946;2023-04-07T05:39:47;23.73;;;14.17;;
5841;SDS011;2947;52.276;9.946;2023-04-07T05:42:13;25.17;;;13.87;;
5841;SDS011;2947;52.276;9.946;2023-04-07T05:44:39;23.00;;;13.50;;
5841;SDS011;2947;52.276;9.946;2023-04-07T05:47:05;26.67;;;14.40;;
5841;SDS011;2947;52.276;9.946;2023-04-07T05:49:33;17.97;;;12.60;;
5841;SDS011;2947;52.276;9.946;2023-04-07T05:51:59;22.47;;;13.70;;
5841;SDS011;2947;52.276;9.946;2023-04-07T05:54:27;23.30;;;14.20;;
5841;SDS011;2947;52.276;9.946;2023-04-07T05:56:53;30.60;;;13.10;;
5841;SDS011;2947;52.276;9.946;2023-04-07T05:59:20;21.60;;;12.93;;
5841;SDS011;2947;52.276;9.946;2023-04-07T06:01:47;20.33;;;13.00;;
5841;SDS011;2947;52.276;9.946;2023-04-07T06:04:14;25.37;;;13.37;;
5841;SDS011;2947;52.276;9.946;2023-04-07T06:06:39;20.30;;;11.67;;
5841;SDS011;2947;52.276;9.946;2023-04-07T06:09:05;21.10;;;12.87;;
5841;SDS011;2947;52.276;9.946;2023-04-07T06:11:30;21.83;;;12.20;;
5841;SDS011;2947;52.276;9.946;2023-04-07T06:13:56;19.80;;;12.23;;
5841;SDS011;2947;52.276;9.946;2023-04-07T06:16:22;22.47;;;13.73;;
5841;SDS011;2947;52.276;9.946;2023-04-07T06:18:49;24.10;;;14.17;;
5841;SDS011;2947;52.276;9.946;2023-04-07T06:21:15;23.63;;;13.93;;
5841;SDS011;2947;52.276;9.946;2023-04-07T06:23:41;23.40;;;13.93;;
5841;SDS011;2947;52.276;9.946;2023-04-07T06:26:10;23.93;;;11.20;;
5841;SDS011;2947;52.276;9.946;2023-04-07T06:28:36;17.87;;;10.63;;
5841;SDS011;2947;52.276;9.946;2023-04-07T06:31:02;23.10;;;13.57;;
5841;SDS011;2947;52.276;9.946;2023-04-07T06:33:28;19.60;;;10.87;;
5841;SDS011;2947;52.276;9.946;2023-04-07T06:35:55;20.03;;;13.20;;
5841;SDS011;2947;52.276;9.946;2023-04-07T06:38:22;24.10;;;13.13;;
5841;SDS011;2947;52.276;9.946;2023-04-07T06:40:48;22.00;;;14.00;;
5841;SDS011;2947;52.276;9.946;2023-04-07T06:43:15;24.53;;;12.70;;
5841;SDS011;2947;52.276;9.946;2023-04-07T06:45:41;22.47;;;12.43;;
5841;SDS011;2947;52.276;9.946;2023-04-07T06:48:07;23.90;;;13.00;;
5841;SDS011;2947;52.276;9.946;2023-04-07T06:50:34;31.60;;;12.80;;
5841;SDS011;2947;52.276;9.946;2023-04-07T06:53:02;24.83;;;13.70;;
5841;SDS011;2947;52.276;9.946;2023-04-07T06:55:28;22.23;;;13.90;;
5841;SDS011;2947;52.276;9.946;2023-04-07T06:57:54;27.67;;;15.33;;
5841;SDS011;2947;52.276;9.946;2023-04-07T07:00:20;28.90;;;14.60;;
5841;SDS011;2947;52.276;9.946;2023-04-07T07:02:47;25.93;;;13.90;;
5841;SDS011;2947;52.276;9.946;2023-04-07T07:05:14;30.00;;;14.90;;
5841;SDS011;2947;52.276;9.946;2023-04-07T07:07:40;24.37;;;13.53;;
5841;SDS011;2947;52.276;9.946;2023-04-07T07:10:09;28.07;;;14.43;;
5841;SDS011;2947;52.276;9.946;2023-04-07T07:12:35;29.73;;;14.23;;
5841;SDS011;2947;52.276;9.946;2023-04-07T07:15:01;24.10;;;12.20;;
5841;SDS011;2947;52.276;9.946;2023-04-07T07:17:27;24.40;;;12.87;;
5841;SDS011;2947;52.276;9.946;2023-04-07T07:19:54;26.17;;;14.03;;
5841;SDS011;2947;52.276;9.946;2023-04-07T07:22:20;23.10;;;13.50;;
5841;SDS011;2947;52.276;9.946;2023-04-07T07:24:45;23.30;;;12.80;;
5841;SDS011;2947;52.276;9.946;2023-04-07T07:27:11;22.50;;;11.90;;
5841;SDS011;2947;52.276;9.946;2023-04-07T07:29:37;24.23;;;12.43;;
5841;SDS011;2947;52.276;9.946;2023-04-07T07:32:03;20.97;;;12.00;;
5841;SDS011;2947;52.276;9.946;2023-04-07T07:34:28;21.27;;;12.50;;
5841;SDS011;2947;52.276;9.946;2023-04-07T07:36:54;20.10;;;11.30;;
5841;SDS011;2947;52.276;9.946;2023-04-07T07:39:20;17.10;;;11.63;;
5841;SDS011;2947;52.276;9.946;2023-04-07T07:41:47;17.03;;;11.53;;
5841;SDS011;2947;52.276;9.946;2023-04-07T07:44:15;17.70;;;11.83;;
5841;SDS011;2947;52.276;9.946;2023-04-07T07:46:41;16.20;;;11.03;;
5841;SDS011;2947;52.276;9.946;2023-04-07T07:49:06;18.80;;;10.70;;
5841;SDS011;2947;52.276;9.946;2023-04-07T07:51:32;20.80;;;11.70;;
5841;SDS011;2947;52.276;9.946;2023-04-07T07:53:58;15.77;;;10.50;;
5841;SDS011;2947;52.276;9.946;2023-04-07T07:56:24;18.13;;;9.97;;
5841;SDS011;2947;52.276;9.946;2023-04-07T07:58:50;18.50;;;10.70;;
5841;SDS011;2947;52.276;9.946;2023-04-07T08:01:15;18.10;;;8.03;;
5841;SDS011;2947;52.276;9.946;2023-04-07T08:03:41;17.90;;;10.93;;
5841;SDS011;2947;52.276;9.946;2023-04-07T08:06:07;15.77;;;9.30;;
5841;SDS011;2947;52.276;9.946;2023-04-07T08:08:34;14.37;;;10.00;;
5841;SDS011;2947;52.276;9.946;2023-04-07T08:11:00;17.23;;;10.80;;
5841;SDS011;2947;52.276;9.946;2023-04-07T08:13:26;19.63;;;10.20;;
5841;SDS011;2947;52.276;9.946;2023-04-07T08:15:52;15.20;;;10.30;;
5841;SDS011;2947;52.276;9.946;2023-04-07T08:18:19;16.90;;;10.13;;
5841;SDS011;2947;52.276;9.946;2023-04-07T08:20:46;17.67;;;8.90;;
5841;SDS011;2947;52.276;9.946;2023-04-07T08:23:12;14.83;;;9.37;;
5841;SDS011;2947;52.276;9.946;2023-04-07T08:25:38;20.87;;;9.10;;
5841;SDS011;2947;52.276;9.946;2023-04-07T08:28:06;28.93;;;15.80;;
5841;SDS011;2947;52.276;9.946;2023-04-07T08:30:32;15.87;;;9.67;;
5841;SDS011;2947;52.276;9.946;2023-04-07T08:32:58;14.27;;;8.90;;
5841;SDS011;2947;52.276;9.946;2023-04-07T08:35:23;15.23;;;9.40;;
5841;SDS011;2947;52.276;9.946;2023-04-07T08:37:49;14.13;;;8.60;;
5841;SDS011;2947;52.276;9.946;2023-04-07T08:40:15;18.03;;;8.40;;
5841;SDS011;2947;52.276;9.946;2023-04-07T08:42:42;12.47;;;7.83;;
5841;SDS011;2947;52.276;9.946;2023-04-07T08:45:12;13.10;;;9.20;;
5841;SDS011;2947;52.276;9.946;2023-04-07T08:47:39;16.30;;;9.40;;
5841;SDS011;2947;52.276;9.946;2023-04-07T08:50:07;12.57;;;7.87;;
5841;SDS011;2947;52.276;9.946;2023-04-07T08:52:45;16.80;;;9.03;;
5841;SDS011;2947;52.276;9.946;2023-04-07T08:55:15;15.23;;;8.30;;
5841;SDS011;2947;52.276;9.946;2023-04-07T08:57:42;10.60;;;6.83;;
5841;SDS011;2947;52.276;9.946;2023-04-07T09:00:08;14.93;;;7.73;;
5841;SDS011;2947;52.276;9.946;2023-04-07T09:02:36;13.13;;;7.93;;
5841;SDS011;2947;52.276;9.946;2023-04-07T09:05:08;11.10;;;6.47;;
5841;SDS011;2947;52.276;9.946;2023-04-07T09:07:35;14.73;;;6.80;;
5841;SDS011;2947;52.276;9.946;2023-04-07T09:10:02;11.43;;;7.20;;
5841;SDS011;2947;52.276;9.946;2023-04-07T09:12:29;16.37;;;6.80;;
5841;SDS011;2947;52.276;9.946;2023-04-07T09:14:56;11.27;;;6.40;;
5841;SDS011;2947;52.276;9.946;2023-04-07T09:17:24;13.27;;;7.67;;
5841;SDS011;2947;52.276;9.946;2023-04-07T09:19:51;12.80;;;6.40;;
5841;SDS011;2947;52.276;9.946;2023-04-07T09:22:34;12.80;;;6.83;;
5841;SDS011;2947;52.276;9.946;2023-04-07T09:25:35;10.50;;;6.13;;
5841;SDS011;2947;52.276;9.946;2023-04-07T09:28:04;13.80;;;7.30;;
5841;SDS011;2947;52.276;9.946;2023-04-07T09:30:30;9.07;;;6.27;;
5841;SDS011;2947;52.276;9.946;2023-04-07T09:32:58;19.07;;;9.33;;
5841;SDS011;2947;52.276;9.946;2023-04-07T09:35:25;12.93;;;8.70;;
5841;SDS011;2947;52.276;9.946;2023-04-07T09:40:31;10.53;;;6.53;;
5841;SDS011;2947;52.276;9.946;2023-04-07T09:42:58;11.00;;;6.30;;
5841;SDS011;2947;52.276;9.946;2023-04-07T09:45:28;10.30;;;6.47;;
5841;SDS011;2947;52.276;9.946;2023-04-07T09:48:21;13.10;;;8.03;;
5841;SDS011;2947;52.276;9.946;2023-04-07T09:50:46;12.67;;;6.23;;
5841;SDS011;2947;52.276;9.946;2023-04-07T09:53:15;12.03;;;6.90;;
5841;SDS011;2947;52.276;9.946;2023-04-07T09:55:43;10.30;;;6.30;;
5841;SDS011;2947;52.276;9.946;2023-04-07T09:58:12;13.30;;;7.20;;
5841;SDS011;2947;52.276;9.946;2023-04-07T10:00:38;15.90;;;7.30;;
5841;SDS011;2947;52.276;9.946;2023-04-07T10:03:06;10.73;;;6.80;;
5841;SDS011;2947;52.276;9.946;2023-04-07T10:05:32;9.20;;;6.30;;
5841;SDS011;2947;52.276;9.946;2023-04-07T10:08:00;10.30;;;5.80;;
5841;SDS011;2947;52.276;9.946;2023-04-07T10:10:26;10.77;;;6.33;;
5841;SDS011;2947;52.276;9.946;2023-04-07T10:12:54;11.60;;;6.33;;
5841;SDS011;2947;52.276;9.946;2023-04-07T10:15:21;12.53;;;7.37;;
5841;SDS011;2947;52.276;9.946;2023-04-07T10:17:47;10.50;;;6.33;;
5841;SDS011;2947;52.276;9.946;2023-04-07T10:20:16;13.63;;;6.73;;
5841;SDS011;2947;52.276;9.946;2023-04-07T10:22:45;7.43;;;4.37;;
5841;SDS011;2947;52.276;9.946;2023-04-07T10:25:15;13.50;;;7.20;;
5841;SDS011;2947;52.276;9.946;2023-04-07T10:27:54;13.07;;;6.80;;
5841;SDS011;2947;52.276;9.946;2023-04-07T10:30:30;14.33;;;7.37;;
5841;SDS011;2947;52.276;9.946;2023-04-07T10:32:57;9.90;;;6.57;;
5841;SDS011;2947;52.276;9.946;2023-04-07T10:35:23;12.17;;;6.57;;
5841;SDS011;2947;52.276;9.946;2023-04-07T10:40:39;10.70;;;6.55;;
5841;SDS011;2947;52.276;9.946;2023-04-07T10:43:07;14.73;;;7.15;;
5841;SDS011;2947;52.276;9.946;2023-04-07T10:48:18;13.73;;;6.97;;
5841;SDS011;2947;52.276;9.946;2023-04-07T10:50:45;11.13;;;6.00;;
5841;SDS011;2947;52.276;9.946;2023-04-07T10:53:36;11.20;;;6.40;;
5841;SDS011;2947;52.276;9.946;2023-04-07T10:56:02;13.13;;;7.10;;
5841;SDS011;2947;52.276;9.946;2023-04-07T10:58:28;14.32;;;7.85;;
5841;SDS011;2947;52.276;9.946;2023-04-07T11:06:11;12.68;;;6.70;;
5841;SDS011;2947;52.276;9.946;2023-04-07T11:08:38;20.63;;;5.03;;
5841;SDS011;2947;52.276;9.946;2023-04-07T11:11:06;13.60;;;7.53;;
5841;SDS011;2947;52.276;9.946;2023-04-07T11:16:14;14.48;;;7.75;;
5841;SDS011;2947;52.276;9.946;2023-04-07T11:18:42;15.35;;;7.45;;
5841;SDS011;2947;52.276;9.946;2023-04-07T11:21:09;13.63;;;7.93;;
5841;SDS011;2947;52.276;9.946;2023-04-07T11:23:41;13.27;;;7.20;;
5841;SDS011;2947;52.276;9.946;2023-04-07T11:26:12;13.88;;;7.32;;
5841;SDS011;2947;52.276;9.946;2023-04-07T11:31:28;12.85;;;6.95;;
5841;SDS011;2947;52.276;9.946;2023-04-07T11:34:00;15.55;;;7.68;;
5841;SDS011;2947;52.276;9.946;2023-04-07T11:36:38;14.13;;;7.70;;
5841;SDS011;2947;52.276;9.946;2023-04-07T11:39:16;11.93;;;7.30;;
5841;SDS011;2947;52.276;9.946;2023-04-07T11:41:47;16.75;;;8.18;;
5841;SDS011;2947;52.276;9.946;2023-04-07T11:44:15;14.75;;;8.00;;
5841;SDS011;2947;52.276;9.946;2023-04-07T11:46:58;12.48;;;6.97;;
5841;SDS011;2947;52.276;9.946;2023-04-07T11:49:27;13.80;;;8.00;;
5841;SDS011;2947;52.276;9.946;2023-04-07T11:52:00;14.75;;;7.57;;
5841;SDS011;2947;52.276;9.946;2023-04-07T11:57:25;15.25;;;8.25;;
5841;SDS011;2947;52.276;9.946;2023-04-07T12:00:08;14.10;;;7.82;;
5841;SDS011;2947;52.276;9.946;2023-04-07T12:02:36;15.13;;;8.23;;
5841;SDS011;2947;52.276;9.946;2023-04-07T12:05:02;13.75;;;7.47;;
5841;SDS011;2947;52.276;9.946;2023-04-07T12:07:29;15.98;;;9.25;;
5841;SDS011;2947;52.276;9.946;2023-04-07T12:09:57;12.55;;;7.85;;
5841;SDS011;2947;52.276;9.946;2023-04-07T12:12:26;16.13;;;7.82;;
5841;SDS011;2947;52.276;9.946;2023-04-07T12:14:53;15.13;;;8.43;;
5841;SDS011;2947;52.276;9.946;2023-04-07T12:17:21;14.40;;;7.72;;
5841;SDS011;2947;52.276;9.946;2023-04-07T12:19:51;14.07;;;7.70;;
5841;SDS011;2947;52.276;9.946;2023-04-07T12:22:18;12.88;;;7.35;;
5841;SDS011;2947;52.276;9.946;2023-04-07T12:24:44;12.20;;;6.63;;
5841;SDS011;2947;52.276;9.946;2023-04-07T12:27:12;11.80;;;6.95;;
5841;SDS011;2947;52.276;9.946;2023-04-07T12:29:37;14.93;;;7.55;;
5841;SDS011;2947;52.276;9.946;2023-04-07T12:32:04;14.10;;;7.38;;
5841;SDS011;2947;52.276;9.946;2023-04-07T12:34:38;13.85;;;7.43;;
5841;SDS011;2947;52.276;9.946;2023-04-07T12:37:04;15.40;;;9.38;;
5841;SDS011;2947;52.276;9.946;2023-04-07T12:39:30;17.27;;;7.22;;
5841;SDS011;2947;52.276;9.946;2023-04-07T12:41:57;17.73;;;8.43;;
5841;SDS011;2947;52.276;9.946;2023-04-07T12:44:23;16.38;;;6.93;;
5841;SDS011;2947;52.276;9.946;2023-04-07T12:46:49;13.68;;;7.63;;
5841;SDS011;2947;52.276;9.946;2023-04-07T12:49:15;15.32;;;7.13;;
5841;SDS011;2947;52.276;9.946;2023-04-07T12:51:41;14.02;;;7.78;;
5841;SDS011;2947;52.276;9.946;2023-04-07T12:54:06;10.77;;;6.43;;
5841;SDS011;2947;52.276;9.946;2023-04-07T12:56:32;13.18;;;6.97;;
5841;SDS011;2947;52.276;9.946;2023-04-07T12:58:58;12.50;;;7.13;;
5841;SDS011;2947;52.276;9.946;2023-04-07T13:01:24;11.63;;;6.13;;
5841;SDS011;2947;52.276;9.946;2023-04-07T13:03:51;16.15;;;7.22;;
5841;SDS011;2947;52.276;9.946;2023-04-07T13:06:16;9.90;;;6.15;;
5841;SDS011;2947;52.276;9.946;2023-04-07T13:08:42;11.82;;;5.97;;
5841;SDS011;2947;52.276;9.946;2023-04-07T13:11:08;10.13;;;6.22;;
5841;SDS011;2947;52.276;9.946;2023-04-07T13:13:33;11.23;;;6.47;;
5841;SDS011;2947;52.276;9.946;2023-04-07T13:15:59;14.95;;;7.00;;
5841;SDS011;2947;52.276;9.946;2023-04-07T13:18:25;11.23;;;6.40;;
5841;SDS011;2947;52.276;9.946;2023-04-07T13:20:51;12.57;;;7.32;;
5841;SDS011;2947;52.276;9.946;2023-04-07T13:23:17;8.73;;;5.65;;
5841;SDS011;2947;52.276;9.946;2023-04-07T13:25:42;9.63;;;5.15;;
5841;SDS011;2947;52.276;9.946;2023-04-07T13:28:08;11.95;;;5.95;;
5841;SDS011;2947;52.276;9.946;2023-04-07T13:30:34;8.63;;;5.40;;
5841;SDS011;2947;52.276;9.946;2023-04-07T13:33:00;8.85;;;5.30;;
5841;SDS011;2947;52.276;9.946;2023-04-07T13:35:26;10.30;;;5.30;;
5841;SDS011;2947;52.276;9.946;2023-04-07T13:37:54;6.53;;;4.15;;
5841;SDS011;2947;52.276;9.946;2023-04-07T13:40:19;9.88;;;4.88;;
5841;SDS011;2947;52.276;9.946;2023-04-07T13:42:45;7.50;;;4.63;;
5841;SDS011;2947;52.276;9.946;2023-04-07T13:45:12;6.43;;;4.47;;
5841;SDS011;2947;52.276;9.946;2023-04-07T13:47:37;8.30;;;5.18;;
5841;SDS011;2947;52.276;9.946;2023-04-07T13:50:04;10.45;;;5.75;;
5841;SDS011;2947;52.276;9.946;2023-04-07T13:52:30;8.98;;;5.65;;
5841;SDS011;2947;52.276;9.946;2023-04-07T13:54:59;7.65;;;4.70;;
5841;SDS011;2947;52.276;9.946;2023-04-07T13:57:25;9.98;;;5.20;;
5841;SDS011;2947;52.276;9.946;2023-04-07T13:59:51;9.27;;;5.47;;
5841;SDS011;2947;52.276;9.946;2023-04-07T14:02:17;9.35;;;4.45;;
5841;SDS011;2947;52.276;9.946;2023-04-07T14:04:44;9.07;;;5.07;;
5841;SDS011;2947;52.276;9.946;2023-04-07T14:07:10;9.90;;;5.65;;
5841;SDS011;2947;52.276;9.946;2023-04-07T14:09:36;8.88;;;5.38;;
5841;SDS011;2947;52.276;9.946;2023-04-07T14:12:02;8.93;;;5.05;;
5841;SDS011;2947;52.276;9.946;2023-04-07T14:14:29;10.70;;;5.68;;
5841;SDS011;2947;52.276;9.946;2023-04-07T14:16:55;11.65;;;5.82;;
5841;SDS011;2947;52.276;9.946;2023-04-07T14:19:22;9.60;;;5.22;;
5841;SDS011;2947;52.276;9.946;2023-04-07T14:21:51;11.15;;;6.13;;
5841;SDS011;2947;52.276;9.946;2023-04-07T14:24:17;11.50;;;5.93;;
5841;SDS011;2947;52.276;9.946;2023-04-07T14:26:43;9.68;;;5.03;;
5841;SDS011;2947;52.276;9.946;2023-04-07T14:29:11;10.07;;;4.88;;
5841;SDS011;2947;52.276;9.946;2023-04-07T14:31:38;10.63;;;5.22;;
5841;SDS011;2947;52.276;9.946;2023-04-07T14:34:04;12.07;;;5.68;;
5841;SDS011;2947;52.276;9.946;2023-04-07T14:36:31;10.20;;;5.53;;
5841;SDS011;2947;52.276;9.946;2023-04-07T14:38:57;10.60;;;5.22;;
5841;SDS011;2947;52.276;9.946;2023-04-07T14:41:23;8.77;;;5.15;;
5841;SDS011;2947;52.276;9.946;2023-04-07T14:43:49;8.18;;;4.60;;
5841;SDS011;2947;52.276;9.946;2023-04-07T14:46:20;10.23;;;5.70;;
5841;SDS011;2947;52.276;9.946;2023-04-07T14:48:47;8.65;;;5.07;;
5841;SDS011;2947;52.276;9.946;2023-04-07T14:51:16;11.40;;;5.43;;
5841;SDS011;2947;52.276;9.946;2023-04-07T14:53:42;11.40;;;5.53;;
5841;SDS011;2947;52.276;9.946;2023-04-07T14:56:09;9.30;;;4.72;;
5841;SDS011;2947;52.276;9.946;2023-04-07T14:58:36;10.77;;;4.30;;
5841;SDS011;2947;52.276;9.946;2023-04-07T15:01:03;10.68;;;5.68;;
5841;SDS011;2947;52.276;9.946;2023-04-07T15:03:29;7.68;;;4.55;;
5841;SDS011;2947;52.276;9.946;2023-04-07T15:05:55;9.63;;;4.40;;
5841;SDS011;2947;52.276;9.946;2023-04-07T15:08:22;9.18;;;4.60;;
5841;SDS011;2947;52.276;9.946;2023-04-07T15:10:49;5.93;;;3.60;;
5841;SDS011;2947;52.276;9.946;2023-04-07T15:13:14;9.32;;;4.63;;
5841;SDS011;2947;52.276;9.946;2023-04-07T15:15:40;7.38;;;4.45;;
5841;SDS011;2947;52.276;9.946;2023-04-07T15:18:06;11.85;;;5.18;;
5841;SDS011;2947;52.276;9.946;2023-04-07T15:20:31;9.15;;;4.00;;
5841;SDS011;2947;52.276;9.946;2023-04-07T15:22:57;8.35;;;4.28;;
5841;SDS011;2947;52.276;9.946;2023-04-07T15:25:24;8.00;;;4.72;;
5841;SDS011;2947;52.276;9.946;2023-04-07T15:27:50;9.27;;;5.00;;
5841;SDS011;2947;52.276;9.946;2023-04-07T15:30:18;10.90;;;4.38;;